createdAt,value
2016-09-16T00:00:05.215Z,25.89
2016-09-16T00:00:37.621Z,25.89
2016-09-16T00:01:09.932Z,25.91
2016-09-16T00:01:42.242Z,25.89
2016-09-16T00:02:14.559Z,25.84
2016-09-16T00:02:46.881Z,25.89
2016-09-16T00:03:19.201Z,25.94
2016-09-16T00:03:51.520Z,25.85
2016-09-16T00:04:23.826Z,25.88
2016-09-16T00:04:56.143Z,25.88
2016-09-16T00:05:28.472Z,25.89
2016-09-16T00:06:00.785Z,25.89
2016-09-16T00:06:33.121Z,25.85
2016-09-16T00:07:05.441Z,25.86
2016-09-16T00:07:37.751Z,25.93
2016-09-16T00:08:10.064Z,25.89
2016-09-16T00:08:42.381Z,25.88
2016-09-16T00:09:14.695Z,25.88
2016-09-16T00:09:47.016Z,25.85
2016-09-16T00:10:19.326Z,25.86
2016-09-16T00:10:51.653Z,25.85
2016-09-16T00:11:23.976Z,25.86
2016-09-16T00:11:56.298Z,25.89
2016-09-16T00:12:28.626Z,25.88
2016-09-16T00:13:00.933Z,25.79
2016-09-16T00:13:33.250Z,25.78
2016-09-16T00:14:05.571Z,25.85
2016-09-16T00:14:37.880Z,25.85
2016-09-16T00:15:10.196Z,25.79
2016-09-16T00:15:42.504Z,25.79
2016-09-16T00:16:14.821Z,25.81
2016-09-16T00:16:47.147Z,25.85
2016-09-16T00:17:19.484Z,25.79
2016-09-16T00:17:51.811Z,25.76
2016-09-16T00:18:24.114Z,25.79
2016-09-16T00:18:56.437Z,25.82
2016-09-16T00:19:28.746Z,25.79
2016-09-16T00:20:01.052Z,25.75
2016-09-16T00:20:33.371Z,25.84
2016-09-16T00:21:05.691Z,25.82
2016-09-16T00:21:37.992Z,25.78
2016-09-16T00:22:10.327Z,25.78
2016-09-16T00:22:42.672Z,25.86
2016-09-16T00:23:15.014Z,25.76
2016-09-16T00:23:47.326Z,25.75
2016-09-16T00:24:19.638Z,25.75
2016-09-16T00:24:51.951Z,25.81
2016-09-16T00:25:24.291Z,25.81
2016-09-16T00:25:56.607Z,25.81
2016-09-16T00:26:28.917Z,25.78
2016-09-16T00:27:01.260Z,25.75
2016-09-16T00:27:33.582Z,25.79
2016-09-16T00:28:05.891Z,25.82
2016-09-16T00:28:38.228Z,25.79
2016-09-16T00:29:10.570Z,25.76
2016-09-16T00:29:42.883Z,25.78
2016-09-16T00:30:15.217Z,25.79
2016-09-16T00:30:47.534Z,25.79
2016-09-16T00:31:19.856Z,25.82
2016-09-16T00:31:52.182Z,25.71
2016-09-16T00:32:24.507Z,25.81
2016-09-16T00:32:56.855Z,25.74
2016-09-16T00:33:29.175Z,25.78
2016-09-16T00:34:01.521Z,25.75
2016-09-16T00:34:33.845Z,25.71
2016-09-16T00:35:06.151Z,25.78
2016-09-16T00:35:38.462Z,25.76
2016-09-16T00:36:10.793Z,25.76
2016-09-16T00:36:43.116Z,25.74
2016-09-16T00:37:15.433Z,25.74
2016-09-16T00:37:47.741Z,25.69
2016-09-16T00:38:20.057Z,25.69
2016-09-16T00:38:52.366Z,25.7
2016-09-16T00:39:24.685Z,25.7
2016-09-16T00:39:57.001Z,25.74
2016-09-16T00:40:29.311Z,25.7
2016-09-16T00:41:01.614Z,25.75
2016-09-16T00:41:33.934Z,25.71
2016-09-16T00:42:06.256Z,25.71
2016-09-16T00:42:38.575Z,25.69
2016-09-16T00:43:10.884Z,25.67
2016-09-16T00:43:43.201Z,25.69
2016-09-16T00:44:15.529Z,25.74
2016-09-16T00:44:47.857Z,25.7
2016-09-16T00:45:20.180Z,25.75
2016-09-16T00:45:52.497Z,25.64
2016-09-16T00:46:24.840Z,25.63
2016-09-16T00:46:57.170Z,25.66
2016-09-16T00:47:29.488Z,25.67
2016-09-16T00:48:01.795Z,25.67
2016-09-16T00:48:34.101Z,25.66
2016-09-16T00:49:06.430Z,25.64
2016-09-16T00:49:38.752Z,25.62
2016-09-16T00:50:11.078Z,25.67
2016-09-16T00:50:43.427Z,25.62
2016-09-16T00:51:15.748Z,25.56
2016-09-16T00:51:48.145Z,25.6
2016-09-16T00:52:20.456Z,25.56
2016-09-16T00:52:52.781Z,25.64
2016-09-16T00:53:25.102Z,25.6
2016-09-16T00:53:57.413Z,25.57
2016-09-16T00:54:30.450Z,25.52
2016-09-16T00:55:02.779Z,25.6
2016-09-16T00:55:35.077Z,25.6
2016-09-16T00:56:07.383Z,25.56
2016-09-16T00:56:39.693Z,25.57
2016-09-16T00:57:12.021Z,25.6
2016-09-16T00:57:44.339Z,25.57
2016-09-16T00:58:16.655Z,25.6
2016-09-16T00:58:48.974Z,25.57
2016-09-16T00:59:21.281Z,25.62
2016-09-16T00:59:53.592Z,25.63
2016-09-16T01:00:25.896Z,25.64
2016-09-16T01:00:58.211Z,25.62
2016-09-16T01:01:30.551Z,25.66
2016-09-16T01:02:02.866Z,25.63
2016-09-16T01:02:35.180Z,25.66
2016-09-16T01:03:07.498Z,25.64
2016-09-16T01:03:39.814Z,25.62
2016-09-16T01:04:12.152Z,25.56
2016-09-16T01:04:44.475Z,25.69
2016-09-16T01:05:16.794Z,25.64
2016-09-16T01:05:49.115Z,25.66
2016-09-16T01:06:21.438Z,25.6
2016-09-16T01:06:53.784Z,25.59
2016-09-16T01:07:26.103Z,25.62
2016-09-16T01:07:58.409Z,25.63
2016-09-16T01:08:30.720Z,25.63
2016-09-16T01:09:03.030Z,25.6
2016-09-16T01:09:35.345Z,25.63
2016-09-16T01:10:07.662Z,25.56
2016-09-16T01:10:39.990Z,25.52
2016-09-16T01:11:13.258Z,25.63
2016-09-16T01:11:45.582Z,25.6
2016-09-16T01:12:17.901Z,25.49
2016-09-16T01:12:50.220Z,25.6
2016-09-16T01:13:22.552Z,25.59
2016-09-16T01:13:54.874Z,25.51
2016-09-16T01:14:27.188Z,25.52
2016-09-16T01:14:59.526Z,25.47
2016-09-16T01:15:31.840Z,25.52
2016-09-16T01:16:04.166Z,25.52
2016-09-16T01:16:36.492Z,25.54
2016-09-16T01:17:08.814Z,25.56
2016-09-16T01:17:41.117Z,25.49
2016-09-16T01:18:13.423Z,25.51
2016-09-16T01:18:45.745Z,25.52
2016-09-16T01:19:18.056Z,25.6
2016-09-16T01:19:50.364Z,25.51
2016-09-16T01:20:22.674Z,25.48
2016-09-16T01:20:54.982Z,25.54
2016-09-16T01:21:27.302Z,25.48
2016-09-16T01:21:59.627Z,25.45
2016-09-16T01:22:31.945Z,25.48
2016-09-16T01:23:04.262Z,25.47
2016-09-16T01:23:36.577Z,25.45
2016-09-16T01:24:08.874Z,25.48
2016-09-16T01:24:41.180Z,25.54
2016-09-16T01:25:13.494Z,25.45
2016-09-16T01:25:45.815Z,25.44
2016-09-16T01:26:18.127Z,25.45
2016-09-16T01:26:50.441Z,25.39
2016-09-16T01:27:22.782Z,25.45
2016-09-16T01:27:55.107Z,25.45
2016-09-16T01:28:27.441Z,25.41
2016-09-16T01:28:59.759Z,25.44
2016-09-16T01:29:32.061Z,25.41
2016-09-16T01:30:04.385Z,25.42
2016-09-16T01:30:36.699Z,25.38
2016-09-16T01:31:09.008Z,25.41
2016-09-16T01:31:41.326Z,25.47
2016-09-16T01:32:13.651Z,25.44
2016-09-16T01:32:45.965Z,25.47
2016-09-16T01:33:18.292Z,25.42
2016-09-16T01:33:50.625Z,25.44
2016-09-16T01:34:22.948Z,25.42
2016-09-16T01:34:55.247Z,25.47
2016-09-16T01:35:27.551Z,25.49
2016-09-16T01:35:59.867Z,25.41
2016-09-16T01:36:32.203Z,25.49
2016-09-16T01:37:04.532Z,25.45
2016-09-16T01:37:36.855Z,25.44
2016-09-16T01:38:09.167Z,25.39
2016-09-16T01:38:41.488Z,25.47
2016-09-16T01:39:13.799Z,25.38
2016-09-16T01:39:46.105Z,25.44
2016-09-16T01:40:18.421Z,25.39
2016-09-16T01:40:50.731Z,25.47
2016-09-16T01:41:23.055Z,25.39
2016-09-16T01:41:55.367Z,25.41
2016-09-16T01:42:27.682Z,25.42
2016-09-16T01:43:00.008Z,25.48
2016-09-16T01:43:32.322Z,25.38
2016-09-16T01:44:04.662Z,25.37
2016-09-16T01:44:36.980Z,25.47
2016-09-16T01:45:09.301Z,25.42
2016-09-16T01:45:41.618Z,25.42
2016-09-16T01:46:13.933Z,25.39
2016-09-16T01:46:46.252Z,25.37
2016-09-16T01:47:18.567Z,25.34
2016-09-16T01:47:50.879Z,25.34
2016-09-16T01:48:23.207Z,25.44
2016-09-16T01:48:55.504Z,25.32
2016-09-16T01:49:27.828Z,25.44
2016-09-16T01:50:00.137Z,25.37
2016-09-16T01:50:32.714Z,25.26
2016-09-16T01:51:05.026Z,25.37
2016-09-16T01:51:37.360Z,25.44
2016-09-16T01:52:09.682Z,25.37
2016-09-16T01:52:42.000Z,25.37
2016-09-16T01:53:14.330Z,25.33
2016-09-16T01:53:46.661Z,25.29
2016-09-16T01:54:18.975Z,25.37
2016-09-16T01:54:51.910Z,25.37
2016-09-16T01:55:24.253Z,25.45
2016-09-16T01:55:56.586Z,25.34
2016-09-16T01:56:28.907Z,25.37
2016-09-16T01:57:01.248Z,25.37
2016-09-16T01:57:33.557Z,25.39
2016-09-16T01:58:05.881Z,25.39
2016-09-16T01:58:38.191Z,25.33
2016-09-16T01:59:10.508Z,25.3
2016-09-16T01:59:42.835Z,25.32
2016-09-16T02:00:15.134Z,25.37
2016-09-16T02:00:47.436Z,25.44
2016-09-16T02:01:19.756Z,25.32
2016-09-16T02:01:52.066Z,25.34
2016-09-16T02:02:24.403Z,25.39
2016-09-16T02:02:56.716Z,25.33
2016-09-16T02:03:29.032Z,25.39
2016-09-16T02:04:01.351Z,25.34
2016-09-16T02:04:33.677Z,25.32
2016-09-16T02:05:06.003Z,25.34
2016-09-16T02:05:38.329Z,25.38
2016-09-16T02:06:10.653Z,25.37
2016-09-16T02:06:42.980Z,25.32
2016-09-16T02:07:15.302Z,25.41
2016-09-16T02:07:47.605Z,25.38
2016-09-16T02:08:19.933Z,25.37
2016-09-16T02:08:52.253Z,25.34
2016-09-16T02:09:24.565Z,25.34
2016-09-16T02:09:56.852Z,25.33
2016-09-16T02:10:29.182Z,25.32
2016-09-16T02:11:01.518Z,25.34
2016-09-16T02:11:33.836Z,25.37
2016-09-16T02:12:06.165Z,25.34
2016-09-16T02:12:38.482Z,25.38
2016-09-16T02:13:10.818Z,25.38
2016-09-16T02:13:43.142Z,25.37
2016-09-16T02:14:15.468Z,25.38
2016-09-16T02:14:47.778Z,25.39
2016-09-16T02:15:20.069Z,25.33
2016-09-16T02:15:52.400Z,25.41
2016-09-16T02:16:24.712Z,25.39
2016-09-16T02:16:57.033Z,25.38
2016-09-16T02:17:29.351Z,25.37
2016-09-16T02:18:01.677Z,25.32
2016-09-16T02:18:33.997Z,25.33
2016-09-16T02:19:06.296Z,25.39
2016-09-16T02:19:38.619Z,25.37
2016-09-16T02:20:10.939Z,25.38
2016-09-16T02:20:43.250Z,25.34
2016-09-16T02:21:15.581Z,25.34
2016-09-16T02:21:47.897Z,25.33
2016-09-16T02:22:20.209Z,25.34
2016-09-16T02:22:52.517Z,25.32
2016-09-16T02:23:24.841Z,25.34
2016-09-16T02:23:57.177Z,25.38
2016-09-16T02:24:29.494Z,25.34
2016-09-16T02:25:01.815Z,25.38
2016-09-16T02:25:34.126Z,25.32
2016-09-16T02:26:06.443Z,25.38
2016-09-16T02:26:38.757Z,25.34
2016-09-16T02:27:11.081Z,25.32
2016-09-16T02:27:43.409Z,25.34
2016-09-16T02:28:15.747Z,25.33
2016-09-16T02:28:48.066Z,25.37
2016-09-16T02:29:20.379Z,25.32
2016-09-16T02:29:52.685Z,25.39
2016-09-16T02:30:24.997Z,25.3
2016-09-16T02:30:57.303Z,25.39
2016-09-16T02:31:29.639Z,25.38
2016-09-16T02:32:01.952Z,25.39
2016-09-16T02:32:34.278Z,25.32
2016-09-16T02:33:06.600Z,25.38
2016-09-16T02:33:38.925Z,25.37
2016-09-16T02:34:11.245Z,25.38
2016-09-16T02:34:43.562Z,25.3
2016-09-16T02:35:15.877Z,25.34
2016-09-16T02:35:48.207Z,25.33
2016-09-16T02:36:20.530Z,25.38
2016-09-16T02:36:52.858Z,25.3
2016-09-16T02:37:25.188Z,25.34
2016-09-16T02:37:57.501Z,25.32
2016-09-16T02:38:29.821Z,25.38
2016-09-16T02:39:02.163Z,25.38
2016-09-16T02:39:34.481Z,25.33
2016-09-16T02:40:06.778Z,25.34
2016-09-16T02:40:39.108Z,25.33
2016-09-16T02:41:11.426Z,25.27
2016-09-16T02:41:43.742Z,25.3
2016-09-16T02:42:16.051Z,25.33
2016-09-16T02:42:48.372Z,25.34
2016-09-16T02:43:20.690Z,25.34
2016-09-16T02:43:53.009Z,25.32
2016-09-16T02:44:25.330Z,25.33
2016-09-16T02:44:57.644Z,25.3
2016-09-16T02:45:29.959Z,25.38
2016-09-16T02:46:02.272Z,25.3
2016-09-16T02:46:34.579Z,25.34
2016-09-16T02:47:06.899Z,25.27
2016-09-16T02:47:39.204Z,25.38
2016-09-16T02:48:11.514Z,25.32
2016-09-16T02:48:43.842Z,25.34
2016-09-16T02:49:16.145Z,25.33
2016-09-16T02:49:48.472Z,25.37
2016-09-16T02:50:20.792Z,25.38
2016-09-16T02:50:53.122Z,25.37
2016-09-16T02:51:25.427Z,25.33
2016-09-16T02:51:57.752Z,25.34
2016-09-16T02:52:30.062Z,25.33
2016-09-16T02:53:02.385Z,25.37
2016-09-16T02:53:34.715Z,25.37
2016-09-16T02:54:07.049Z,25.3
2016-09-16T02:54:39.392Z,25.33
2016-09-16T02:55:11.692Z,25.32
2016-09-16T02:55:44.011Z,25.37
2016-09-16T02:56:16.343Z,25.32
2016-09-16T02:56:48.672Z,25.27
2016-09-16T02:57:20.979Z,25.33
2016-09-16T02:57:53.307Z,25.33
2016-09-16T02:58:25.617Z,25.3
2016-09-16T02:58:57.922Z,25.37
2016-09-16T02:59:30.249Z,25.33
2016-09-16T03:00:02.566Z,25.37
2016-09-16T03:00:34.876Z,25.33
2016-09-16T03:01:07.179Z,25.34
2016-09-16T03:01:39.499Z,25.34
2016-09-16T03:02:11.829Z,25.34
2016-09-16T03:02:44.130Z,25.33
2016-09-16T03:03:16.436Z,25.33
2016-09-16T03:03:48.746Z,25.37
2016-09-16T03:04:21.086Z,25.32
2016-09-16T03:04:53.402Z,25.34
2016-09-16T03:05:25.726Z,25.3
2016-09-16T03:05:58.055Z,25.33
2016-09-16T03:06:30.371Z,25.29
2016-09-16T03:07:02.680Z,25.3
2016-09-16T03:07:35.011Z,25.32
2016-09-16T03:08:07.312Z,25.3
2016-09-16T03:08:39.622Z,25.3
2016-09-16T03:09:11.966Z,25.3
2016-09-16T03:09:44.288Z,25.33
2016-09-16T03:10:16.592Z,25.32
2016-09-16T03:10:48.903Z,25.33
2016-09-16T03:11:21.214Z,25.32
2016-09-16T03:11:53.519Z,25.29
2016-09-16T03:12:25.828Z,25.32
2016-09-16T03:12:58.156Z,25.29
2016-09-16T03:13:30.491Z,25.37
2016-09-16T03:14:02.810Z,25.3
2016-09-16T03:14:35.135Z,25.32
2016-09-16T03:15:07.446Z,25.33
2016-09-16T03:15:39.768Z,25.34
2016-09-16T03:16:12.085Z,25.34
2016-09-16T03:16:44.423Z,25.32
2016-09-16T03:17:16.737Z,25.32
2016-09-16T03:17:49.060Z,25.37
2016-09-16T03:18:21.380Z,25.33
2016-09-16T03:18:53.695Z,25.34
2016-09-16T03:19:26.030Z,25.32
2016-09-16T03:19:58.347Z,25.33
2016-09-16T03:20:30.657Z,25.37
2016-09-16T03:21:02.963Z,25.38
2016-09-16T03:21:35.278Z,25.27
2016-09-16T03:22:07.601Z,25.32
2016-09-16T03:22:39.941Z,25.26
2016-09-16T03:23:12.261Z,25.3
2016-09-16T03:23:44.586Z,25.32
2016-09-16T03:24:16.910Z,25.32
2016-09-16T03:24:49.233Z,25.26
2016-09-16T03:25:21.571Z,25.3
2016-09-16T03:25:53.895Z,25.24
2016-09-16T03:26:26.207Z,25.29
2016-09-16T03:26:58.528Z,25.32
2016-09-16T03:27:30.858Z,25.3
2016-09-16T03:28:03.178Z,25.3
2016-09-16T03:28:35.488Z,25.3
2016-09-16T03:29:07.811Z,25.32
2016-09-16T03:29:40.137Z,25.3
2016-09-16T03:30:12.437Z,25.29
2016-09-16T03:30:44.756Z,25.32
2016-09-16T03:31:17.073Z,25.3
2016-09-16T03:31:49.390Z,25.32
2016-09-16T03:32:21.717Z,25.3
2016-09-16T03:32:54.027Z,25.29
2016-09-16T03:33:26.355Z,25.27
2016-09-16T03:33:58.659Z,25.3
2016-09-16T03:34:30.982Z,25.3
2016-09-16T03:35:03.312Z,25.33
2016-09-16T03:35:35.619Z,25.29
2016-09-16T03:36:07.916Z,25.3
2016-09-16T03:36:40.248Z,25.32
2016-09-16T03:37:12.568Z,25.3
2016-09-16T03:37:44.896Z,25.33
2016-09-16T03:38:17.215Z,25.34
2016-09-16T03:38:49.535Z,25.32
2016-09-16T03:39:21.847Z,25.32
2016-09-16T03:39:54.170Z,25.23
2016-09-16T03:40:26.499Z,25.29
2016-09-16T03:40:58.814Z,25.32
2016-09-16T03:41:31.129Z,25.3
2016-09-16T03:42:03.454Z,25.27
2016-09-16T03:42:35.757Z,25.33
2016-09-16T03:43:08.069Z,25.3
2016-09-16T03:43:40.397Z,25.27
2016-09-16T03:44:12.730Z,25.26
2016-09-16T03:44:45.058Z,25.29
2016-09-16T03:45:17.382Z,25.32
2016-09-16T03:45:49.698Z,25.29
2016-09-16T03:46:22.017Z,25.26
2016-09-16T03:46:54.335Z,25.37
2016-09-16T03:47:26.648Z,25.33
2016-09-16T03:47:58.978Z,25.29
2016-09-16T03:48:31.316Z,25.27
2016-09-16T03:49:03.641Z,25.32
2016-09-16T03:49:35.965Z,25.24
2016-09-16T03:50:08.289Z,25.3
2016-09-16T03:50:40.605Z,25.34
2016-09-16T03:51:12.915Z,25.26
2016-09-16T03:51:45.244Z,25.29
2016-09-16T03:52:17.580Z,25.3
2016-09-16T03:52:49.913Z,25.27
2016-09-16T03:53:22.227Z,25.26
2016-09-16T03:53:54.552Z,25.22
2016-09-16T03:54:26.883Z,25.26
2016-09-16T03:54:59.195Z,25.3
2016-09-16T03:55:31.530Z,25.3
2016-09-16T03:56:03.842Z,25.3
2016-09-16T03:56:36.177Z,25.33
2016-09-16T03:57:08.506Z,25.33
2016-09-16T03:57:40.811Z,25.29
2016-09-16T03:58:13.136Z,25.26
2016-09-16T03:58:45.447Z,25.3
2016-09-16T03:59:17.769Z,25.3
2016-09-16T03:59:50.096Z,25.3
2016-09-16T04:00:22.424Z,25.29
2016-09-16T04:00:54.746Z,25.32
2016-09-16T04:01:27.057Z,25.27
2016-09-16T04:01:59.373Z,25.26
2016-09-16T04:02:31.676Z,25.29
2016-09-16T04:03:04.015Z,25.38
2016-09-16T04:03:36.326Z,25.32
2016-09-16T04:04:08.653Z,25.22
2016-09-16T04:04:40.985Z,25.22
2016-09-16T04:05:13.310Z,25.3
2016-09-16T04:05:45.611Z,25.26
2016-09-16T04:06:17.926Z,25.27
2016-09-16T04:06:50.255Z,25.2
2016-09-16T04:07:22.564Z,25.26
2016-09-16T04:07:54.882Z,25.29
2016-09-16T04:08:27.190Z,25.24
2016-09-16T04:08:59.520Z,25.3
2016-09-16T04:09:31.838Z,25.24
2016-09-16T04:10:04.162Z,25.24
2016-09-16T04:10:36.496Z,25.22
2016-09-16T04:11:08.810Z,25.23
2016-09-16T04:11:41.127Z,25.27
2016-09-16T04:12:13.424Z,25.29
2016-09-16T04:12:45.753Z,25.26
2016-09-16T04:13:18.068Z,25.24
2016-09-16T04:13:50.403Z,25.27
2016-09-16T04:14:22.734Z,25.27
2016-09-16T04:14:55.051Z,25.24
2016-09-16T04:15:27.377Z,25.2
2016-09-16T04:15:59.705Z,25.27
2016-09-16T04:16:32.014Z,25.29
2016-09-16T04:17:04.355Z,25.27
2016-09-16T04:17:36.680Z,25.24
2016-09-16T04:18:09.016Z,25.32
2016-09-16T04:18:41.328Z,25.22
2016-09-16T04:19:13.656Z,25.32
2016-09-16T04:19:45.992Z,25.29
2016-09-16T04:20:18.318Z,25.3
2016-09-16T04:20:50.634Z,25.29
2016-09-16T04:21:22.962Z,25.27
2016-09-16T04:21:55.274Z,25.26
2016-09-16T04:22:27.604Z,25.29
2016-09-16T04:22:59.933Z,25.32
2016-09-16T04:23:32.248Z,25.24
2016-09-16T04:24:04.573Z,25.26
2016-09-16T04:24:36.876Z,25.32
2016-09-16T04:25:09.195Z,25.26
2016-09-16T04:25:41.524Z,25.23
2016-09-16T04:26:13.824Z,25.23
2016-09-16T04:26:46.148Z,25.24
2016-09-16T04:27:18.466Z,25.24
2016-09-16T04:27:50.789Z,25.26
2016-09-16T04:28:23.118Z,25.3
2016-09-16T04:28:55.436Z,25.23
2016-09-16T04:29:27.759Z,25.23
2016-09-16T04:30:00.083Z,25.26
2016-09-16T04:30:32.406Z,25.24
2016-09-16T04:31:05.891Z,25.23
2016-09-16T04:31:38.213Z,25.24
2016-09-16T04:32:10.526Z,25.27
2016-09-16T04:32:43.052Z,25.22
2016-09-16T04:33:15.377Z,25.23
2016-09-16T04:33:47.706Z,25.23
2016-09-16T04:34:20.012Z,25.27
2016-09-16T04:34:52.310Z,25.33
2016-09-16T04:35:24.636Z,25.27
2016-09-16T04:35:56.943Z,25.24
2016-09-16T04:36:29.271Z,25.23
2016-09-16T04:37:01.589Z,25.23
2016-09-16T04:37:33.911Z,25.22
2016-09-16T04:38:06.242Z,25.27
2016-09-16T04:38:38.567Z,25.24
2016-09-16T04:39:10.987Z,25.26
2016-09-16T04:39:43.295Z,25.24
2016-09-16T04:40:15.621Z,25.27
2016-09-16T04:40:47.932Z,25.24
2016-09-16T04:41:20.252Z,25.29
2016-09-16T04:41:52.578Z,25.23
2016-09-16T04:42:24.881Z,25.34
2016-09-16T04:42:57.196Z,25.2
2016-09-16T04:43:29.501Z,25.22
2016-09-16T04:44:01.806Z,25.23
2016-09-16T04:44:34.142Z,25.26
2016-09-16T04:45:06.492Z,25.22
2016-09-16T04:45:38.810Z,25.24
2016-09-16T04:46:11.123Z,25.27
2016-09-16T04:46:43.450Z,25.23
2016-09-16T04:47:15.761Z,25.2
2016-09-16T04:47:48.085Z,25.26
2016-09-16T04:48:20.409Z,25.27
2016-09-16T04:48:52.739Z,25.3
2016-09-16T04:49:25.047Z,25.24
2016-09-16T04:49:57.377Z,25.23
2016-09-16T04:50:29.687Z,25.24
2016-09-16T04:51:02.005Z,25.24
2016-09-16T04:51:34.314Z,25.24
2016-09-16T04:52:06.642Z,25.24
2016-09-16T04:52:40.155Z,25.26
2016-09-16T04:53:12.475Z,25.27
2016-09-16T04:53:44.786Z,25.22
2016-09-16T04:54:17.088Z,25.27
2016-09-16T04:54:49.402Z,25.22
2016-09-16T04:55:21.722Z,25.24
2016-09-16T04:55:54.034Z,25.27
2016-09-16T04:56:26.369Z,25.24
2016-09-16T04:56:58.692Z,25.26
2016-09-16T04:57:31.015Z,25.3
2016-09-16T04:58:03.338Z,25.24
2016-09-16T04:58:35.651Z,25.22
2016-09-16T04:59:07.957Z,25.22
2016-09-16T04:59:40.255Z,25.22
2016-09-16T05:00:12.581Z,25.29
2016-09-16T05:00:44.911Z,25.24
2016-09-16T05:01:17.216Z,25.3
2016-09-16T05:01:49.536Z,25.3
2016-09-16T05:02:21.877Z,25.24
2016-09-16T05:02:54.210Z,25.23
2016-09-16T05:03:26.802Z,25.26
2016-09-16T05:03:59.119Z,25.22
2016-09-16T05:04:31.447Z,25.22
2016-09-16T05:05:03.783Z,25.23
2016-09-16T05:05:36.095Z,25.19
2016-09-16T05:06:08.419Z,25.24
2016-09-16T05:06:40.755Z,25.23
2016-09-16T05:07:13.080Z,25.22
2016-09-16T05:07:45.388Z,25.22
2016-09-16T05:08:17.705Z,25.23
2016-09-16T05:08:50.019Z,25.26
2016-09-16T05:09:22.336Z,25.22
2016-09-16T05:09:54.636Z,25.24
2016-09-16T05:10:26.956Z,25.2
2016-09-16T05:10:59.274Z,25.23
2016-09-16T05:11:31.600Z,25.22
2016-09-16T05:12:03.921Z,25.22
2016-09-16T05:12:36.226Z,25.24
2016-09-16T05:13:08.539Z,25.22
2016-09-16T05:13:40.841Z,25.2
2016-09-16T05:14:13.166Z,25.27
2016-09-16T05:14:45.481Z,25.22
2016-09-16T05:15:17.809Z,25.26
2016-09-16T05:15:50.210Z,25.27
2016-09-16T05:16:22.535Z,25.23
2016-09-16T05:16:54.841Z,25.2
2016-09-16T05:17:27.184Z,25.24
2016-09-16T05:17:59.509Z,25.23
2016-09-16T05:18:31.831Z,25.23
2016-09-16T05:19:04.147Z,25.29
2016-09-16T05:19:36.468Z,25.23
2016-09-16T05:20:08.790Z,25.24
2016-09-16T05:20:41.156Z,25.23
2016-09-16T05:21:13.476Z,25.22
2016-09-16T05:21:45.800Z,25.24
2016-09-16T05:22:18.117Z,25.19
2016-09-16T05:22:50.432Z,25.24
2016-09-16T05:23:22.769Z,25.22
2016-09-16T05:23:55.084Z,25.2
2016-09-16T05:24:27.410Z,25.2
2016-09-16T05:24:59.723Z,25.22
2016-09-16T05:25:32.050Z,25.23
2016-09-16T05:26:04.373Z,25.26
2016-09-16T05:26:36.710Z,25.22
2016-09-16T05:27:09.032Z,25.23
2016-09-16T05:27:41.344Z,25.22
2016-09-16T05:28:13.658Z,25.23
2016-09-16T05:28:45.989Z,25.22
2016-09-16T05:29:18.385Z,25.22
2016-09-16T05:29:50.693Z,25.23
2016-09-16T05:30:23.034Z,25.27
2016-09-16T05:30:56.126Z,25.24
2016-09-16T05:31:28.460Z,25.22
2016-09-16T05:32:00.797Z,25.24
2016-09-16T05:32:33.127Z,25.24
2016-09-16T05:33:05.449Z,25.22
2016-09-16T05:33:37.800Z,25.26
2016-09-16T05:34:10.589Z,25.23
2016-09-16T05:34:44.719Z,25.23
2016-09-16T05:35:18.336Z,25.3
2016-09-16T05:35:51.658Z,25.22
2016-09-16T05:36:23.982Z,25.24
2016-09-16T05:36:56.293Z,25.34
2016-09-16T05:37:28.616Z,25.24
2016-09-16T05:38:00.955Z,25.24
2016-09-16T05:38:33.335Z,25.27
2016-09-16T05:39:05.651Z,25.26
2016-09-16T05:39:37.982Z,25.26
2016-09-16T05:40:10.905Z,25.27
2016-09-16T05:40:43.416Z,25.26
2016-09-16T05:41:17.470Z,25.26
2016-09-16T05:41:49.793Z,25.3
2016-09-16T05:42:22.104Z,25.26
2016-09-16T05:42:54.437Z,25.27
2016-09-16T05:43:26.753Z,25.24
2016-09-16T05:44:00.005Z,25.32
2016-09-16T05:44:32.410Z,25.27
2016-09-16T05:45:05.545Z,25.24
2016-09-16T05:45:38.023Z,25.2
2016-09-16T05:46:10.342Z,25.22
2016-09-16T05:46:42.655Z,25.3
2016-09-16T05:47:14.981Z,25.27
2016-09-16T05:47:47.953Z,25.23
2016-09-16T05:48:20.253Z,25.24
2016-09-16T05:48:52.577Z,25.32
2016-09-16T05:49:24.897Z,25.27
2016-09-16T05:49:57.218Z,25.29
2016-09-16T05:50:30.115Z,25.33
2016-09-16T05:51:03.499Z,25.24
2016-09-16T05:51:35.916Z,25.3
2016-09-16T05:52:08.279Z,25.34
2016-09-16T05:52:40.588Z,25.3
2016-09-16T05:53:12.945Z,25.32
2016-09-16T05:53:45.293Z,25.3
2016-09-16T05:54:17.619Z,25.29
2016-09-16T05:54:49.941Z,25.3
2016-09-16T05:55:23.057Z,25.29
2016-09-16T05:55:55.408Z,25.27
2016-09-16T05:56:27.712Z,25.27
2016-09-16T05:57:00.027Z,25.34
2016-09-16T05:57:32.345Z,25.3
2016-09-16T05:58:04.663Z,25.32
2016-09-16T05:58:36.986Z,25.3
2016-09-16T05:59:09.326Z,25.34
2016-09-16T05:59:41.654Z,25.33
2016-09-16T06:00:13.975Z,25.3
2016-09-16T06:00:46.286Z,25.33
2016-09-16T06:01:18.610Z,25.3
2016-09-16T06:01:51.522Z,25.3
2016-09-16T06:02:23.880Z,25.34
2016-09-16T06:02:56.210Z,25.33
2016-09-16T06:03:28.517Z,25.3
2016-09-16T06:04:00.841Z,25.33
2016-09-16T06:04:33.168Z,25.32
2016-09-16T06:05:05.498Z,25.3
2016-09-16T06:05:37.823Z,25.32
2016-09-16T06:06:10.136Z,25.3
2016-09-16T06:06:42.462Z,25.34
2016-09-16T06:07:14.779Z,25.38
2016-09-16T06:07:47.089Z,25.3
2016-09-16T06:08:19.416Z,25.38
2016-09-16T06:08:51.823Z,25.38
2016-09-16T06:09:26.899Z,25.33
2016-09-16T06:10:01.021Z,25.32
2016-09-16T06:10:34.760Z,25.3
2016-09-16T06:11:08.094Z,25.3
2016-09-16T06:11:43.785Z,25.32
2016-09-16T06:12:17.860Z,25.34
2016-09-16T06:12:51.603Z,25.27
2016-09-16T06:13:25.530Z,25.33
2016-09-16T06:13:59.031Z,25.33
2016-09-16T06:14:32.838Z,25.33
2016-09-16T06:15:06.363Z,25.34
2016-09-16T06:15:40.523Z,25.38
2016-09-16T06:16:13.739Z,25.39
2016-09-16T06:16:47.493Z,25.37
2016-09-16T06:17:21.245Z,25.34
2016-09-16T06:17:55.570Z,25.34
2016-09-16T06:18:29.171Z,25.37
2016-09-16T06:19:03.722Z,25.38
2016-09-16T06:19:37.152Z,25.34
2016-09-16T06:20:12.310Z,25.34
2016-09-16T06:20:46.249Z,25.37
2016-09-16T06:21:22.281Z,25.44
2016-09-16T06:21:57.028Z,25.33
2016-09-16T06:22:29.966Z,25.44
2016-09-16T06:23:03.628Z,25.34
2016-09-16T06:23:36.412Z,25.42
2016-09-16T06:24:10.530Z,25.33
2016-09-16T06:24:43.439Z,25.47
2016-09-16T06:25:15.749Z,25.41
2016-09-16T06:25:49.666Z,25.38
2016-09-16T06:26:23.635Z,25.49
2016-09-16T06:27:00.628Z,25.42
2016-09-16T06:27:35.534Z,25.47
2016-09-16T06:28:07.962Z,25.51
2016-09-16T06:28:40.369Z,25.47
2016-09-16T06:29:13.536Z,25.44
2016-09-16T06:29:46.907Z,25.41
2016-09-16T06:30:20.088Z,25.49
2016-09-16T06:30:53.146Z,25.54
2016-09-16T06:31:26.364Z,25.45
2016-09-16T06:31:59.460Z,25.45
2016-09-16T06:32:33.461Z,25.47
2016-09-16T06:33:07.128Z,25.52
2016-09-16T06:33:41.736Z,25.48
2016-09-16T06:34:15.794Z,25.48
2016-09-16T06:34:49.825Z,25.59
2016-09-16T06:35:24.795Z,25.52
2016-09-16T06:35:59.059Z,25.59
2016-09-16T06:36:34.037Z,25.6
2016-09-16T06:37:07.570Z,25.56
2016-09-16T06:37:40.798Z,25.63
2016-09-16T06:38:14.488Z,25.6
2016-09-16T06:38:47.347Z,25.59
2016-09-16T06:39:19.949Z,25.64
2016-09-16T06:39:53.831Z,25.6
2016-09-16T06:40:26.338Z,25.6
2016-09-16T06:40:59.564Z,25.56
2016-09-16T06:41:34.726Z,25.54
2016-09-16T06:42:08.116Z,25.6
2016-09-16T06:42:42.561Z,25.63
2016-09-16T06:43:16.524Z,25.63
2016-09-16T06:43:50.623Z,25.56
2016-09-16T06:44:23.211Z,25.64
2016-09-16T06:44:55.782Z,25.63
2016-09-16T06:45:29.044Z,25.69
2016-09-16T06:46:02.739Z,25.67
2016-09-16T06:46:36.185Z,25.66
2016-09-16T06:47:08.496Z,25.67
2016-09-16T06:47:40.984Z,25.66
2016-09-16T06:48:14.308Z,25.7
2016-09-16T06:48:46.618Z,25.75
2016-09-16T06:49:18.940Z,25.67
2016-09-16T06:49:51.322Z,25.69
2016-09-16T06:50:23.682Z,25.74
2016-09-16T06:50:56.001Z,25.71
2016-09-16T06:51:28.355Z,25.69
2016-09-16T06:52:00.730Z,25.71
2016-09-16T06:52:33.712Z,25.75
2016-09-16T06:53:07.241Z,25.67
2016-09-16T06:53:41.365Z,25.71
2016-09-16T06:54:14.141Z,25.75
2016-09-16T06:54:49.559Z,25.69
2016-09-16T06:55:24.683Z,25.74
2016-09-16T06:55:57.629Z,25.74
2016-09-16T06:56:32.242Z,25.76
2016-09-16T06:57:10.562Z,25.74
2016-09-16T06:57:46.045Z,25.67
2016-09-16T06:58:22.566Z,25.81
2016-09-16T06:58:59.610Z,25.7
2016-09-16T06:59:35.059Z,25.66
2016-09-16T07:00:08.731Z,25.69